createdAt,value
2023-06-22T00:01:31.243Z,23.55
2023-06-22T00:04:01.830Z,23.52
2023-06-22T00:06:30.404Z,23.49
2023-06-22T00:08:58.720Z,23.48
2023-06-22T00:11:29.028Z,23.46
2023-06-22T00:13:57.375Z,23.44
2023-06-22T00:16:25.646Z,23.43
2023-06-22T00:18:54.014Z,23.41
2023-06-22T00:21:22.449Z,23.40
2023-06-22T00:23:50.778Z,23.38
2023-06-22T00:26:25.818Z,23.35
2023-06-22T00:28:55.514Z,23.34
2023-06-22T00:31:23.890Z,23.33
2023-06-22T00:33:52.606Z,23.30
2023-06-22T00:36:29.927Z,23.25
2023-06-22T00:38:58.741Z,23.21
2023-06-22T00:41:32.299Z,23.19
2023-06-22T00:44:01.936Z,23.15
2023-06-22T00:46:30.386Z,23.11
2023-06-22T00:48:59.050Z,23.09
2023-06-22T00:51:27.546Z,23.05
2023-06-22T00:53:56.508Z,23.03
2023-06-22T00:56:31.120Z,22.99
2023-06-22T00:59:04.618Z,22.95
2023-06-22T01:01:33.517Z,22.94
2023-06-22T01:04:07.694Z,22.92
2023-06-22T01:06:47.126Z,22.89
2023-06-22T01:09:22.498Z,22.87
2023-06-22T01:12:00.013Z,22.83
2023-06-22T01:14:39.361Z,22.78
2023-06-22T01:17:10.280Z,22.77
2023-06-22T01:19:48.001Z,22.75
2023-06-22T01:22:19.363Z,22.73
2023-06-22T01:24:59.776Z,22.70
2023-06-22T01:27:43.465Z,22.68
2023-06-22T01:30:14.122Z,22.67
2023-06-22T01:32:43.715Z,22.65
2023-06-22T01:35:19.556Z,22.63
2023-06-22T01:37:49.276Z,22.60
2023-06-22T01:40:18.252Z,22.57
2023-06-22T01:42:47.437Z,22.55
2023-06-22T01:45:18.349Z,22.53
2023-06-22T01:47:47.106Z,22.51
2023-06-22T01:50:15.633Z,22.49
2023-06-22T01:52:43.977Z,22.46
2023-06-22T01:55:12.295Z,22.46
2023-06-22T01:57:41.198Z,22.44
2023-06-22T02:00:16.859Z,22.41
2023-06-22T02:02:54.148Z,22.38
2023-06-22T02:05:23.551Z,22.38
2023-06-22T02:07:57.907Z,22.36
2023-06-22T02:10:33.599Z,22.34
2023-06-22T02:13:05.545Z,22.32
2023-06-22T02:15:35.823Z,22.30
2023-06-22T02:18:04.368Z,22.30
2023-06-22T02:20:32.982Z,22.27
2023-06-22T02:23:01.341Z,22.26
2023-06-22T02:25:29.718Z,22.24
2023-06-22T02:27:58.024Z,22.23
2023-06-22T02:30:26.563Z,22.21
2023-06-22T02:32:59.944Z,22.18
2023-06-22T02:35:32.830Z,22.18
2023-06-22T02:38:04.711Z,22.15
2023-06-22T02:40:35.862Z,22.13
2023-06-22T02:43:05.208Z,22.13
2023-06-22T02:45:33.577Z,22.11
2023-06-22T02:48:06.237Z,22.10
2023-06-22T02:50:34.659Z,22.07
2023-06-22T02:53:02.967Z,22.06
2023-06-22T02:55:32.062Z,22.04
2023-06-22T02:58:09.681Z,22.03
2023-06-22T03:00:38.053Z,22.02
2023-06-22T03:03:07.829Z,22.00
2023-06-22T03:05:38.801Z,21.99
2023-06-22T03:08:07.164Z,21.98
2023-06-22T03:10:35.462Z,21.97
2023-06-22T03:13:03.796Z,21.96
2023-06-22T03:15:32.575Z,21.95
2023-06-22T03:18:01.046Z,21.93
2023-06-22T03:20:34.481Z,21.93
2023-06-22T03:23:02.924Z,21.91
2023-06-22T03:25:31.280Z,21.92
2023-06-22T03:27:59.572Z,21.91
2023-06-22T03:30:28.237Z,21.91
2023-06-22T03:32:56.906Z,21.92
2023-06-22T03:35:25.345Z,21.92
2023-06-22T03:37:55.169Z,21.92
2023-06-22T03:40:26.607Z,21.91
2023-06-22T03:42:54.990Z,21.93
2023-06-22T03:45:23.313Z,21.93
2023-06-22T03:47:51.784Z,21.93
2023-06-22T03:50:24.343Z,21.94
2023-06-22T03:52:54.013Z,21.95
2023-06-22T03:55:25.457Z,21.94
2023-06-22T03:57:55.297Z,21.96
2023-06-22T04:00:23.565Z,21.96
2023-06-22T04:02:52.223Z,21.97
2023-06-22T04:05:20.615Z,21.97
2023-06-22T04:07:49.033Z,21.98
2023-06-22T04:10:24.453Z,21.98
2023-06-22T04:12:52.827Z,22.00
2023-06-22T04:15:21.096Z,22.01
2023-06-22T04:17:49.473Z,22.05
2023-06-22T04:20:17.812Z,22.05
2023-06-22T04:22:49.376Z,22.06
2023-06-22T04:25:17.821Z,22.09
2023-06-22T04:27:47.510Z,22.10
2023-06-22T04:30:17.409Z,22.12
2023-06-22T04:32:46.672Z,22.13
2023-06-22T04:35:17.009Z,22.14
2023-06-22T04:37:47.138Z,22.15
2023-06-22T04:40:15.615Z,22.17
2023-06-22T04:42:54.055Z,22.20
2023-06-22T04:45:24.014Z,22.21
2023-06-22T04:47:53.176Z,22.23
2023-06-22T04:50:22.873Z,22.27
2023-06-22T04:52:51.532Z,22.30
2023-06-22T04:55:20.911Z,22.32
2023-06-22T04:57:50.806Z,22.35
2023-06-22T05:00:24.237Z,22.38
2023-06-22T05:03:10.729Z,22.42
2023-06-22T05:05:46.876Z,22.45
2023-06-22T05:08:16.638Z,22.47
2023-06-22T05:10:59.125Z,22.52
2023-06-22T05:13:34.727Z,22.56
2023-06-22T05:16:04.126Z,22.61
2023-06-22T05:18:34.453Z,22.66
2023-06-22T05:21:03.111Z,22.70
2023-06-22T05:23:31.411Z,22.74
2023-06-22T05:26:02.356Z,22.78
2023-06-22T05:28:30.615Z,22.83
2023-06-22T05:30:59.097Z,22.86
2023-06-22T05:33:27.504Z,22.92
2023-06-22T05:35:57.225Z,22.97
2023-06-22T05:38:25.546Z,23.01
2023-06-22T05:40:53.847Z,23.09
2023-06-22T05:43:22.165Z,23.15
2023-06-22T05:45:50.561Z,23.21
2023-06-22T05:48:18.987Z,23.25
2023-06-22T05:50:47.499Z,23.31
2023-06-22T05:53:18.907Z,23.36
2023-06-22T05:55:49.664Z,23.42
2023-06-22T05:58:18.159Z,23.48
2023-06-22T06:00:47.492Z,23.55
2023-06-22T06:03:18.339Z,23.60
2023-06-22T06:05:49.442Z,23.67
2023-06-22T06:08:19.131Z,23.73
2023-06-22T06:10:49.673Z,23.82
2023-06-22T06:13:18.007Z,23.90
2023-06-22T06:15:46.438Z,23.98
2023-06-22T06:18:14.811Z,24.06
2023-06-22T06:20:43.144Z,24.17
2023-06-22T06:23:11.497Z,24.26
2023-06-22T06:25:41.197Z,24.36
2023-06-22T06:28:09.561Z,24.47
2023-06-22T06:30:38.861Z,24.58
2023-06-22T06:33:10.129Z,24.69
2023-06-22T06:35:38.830Z,24.79
2023-06-22T06:38:07.280Z,24.90
2023-06-22T06:40:35.840Z,25.00
2023-06-22T06:43:05.665Z,25.12
2023-06-22T06:45:35.826Z,25.24
2023-06-22T06:48:04.553Z,25.33
2023-06-22T06:50:33.331Z,25.45
2023-06-22T06:53:01.964Z,25.60
2023-06-22T06:55:33.988Z,25.68
2023-06-22T06:58:03.108Z,25.80
2023-06-22T07:00:33.258Z,25.91
2023-06-22T07:03:01.781Z,26.05
2023-06-22T07:05:30.259Z,26.15
2023-06-22T07:07:58.640Z,26.28
2023-06-22T07:10:27.309Z,26.41
2023-06-22T07:12:55.761Z,26.51
2023-06-22T07:15:24.356Z,26.64
2023-06-22T07:17:54.045Z,26.76
2023-06-22T07:20:22.387Z,26.89
2023-06-22T07:22:50.750Z,27.04
2023-06-22T07:25:19.245Z,27.17
2023-06-22T07:27:58.606Z,27.29
2023-06-22T07:30:28.192Z,27.40
2023-06-22T07:32:59.178Z,27.53
2023-06-22T07:35:27.921Z,27.66
2023-06-22T07:37:56.243Z,27.77
2023-06-22T07:40:24.821Z,27.91
2023-06-22T07:42:54.582Z,27.98
2023-06-22T07:45:22.936Z,28.09
2023-06-22T07:47:52.283Z,28.18
2023-06-22T07:50:22.084Z,28.26
2023-06-22T07:52:50.518Z,28.35
2023-06-22T07:55:18.970Z,28.47
2023-06-22T07:57:54.423Z,28.57
2023-06-22T08:00:23.321Z,28.70
2023-06-22T08:02:51.830Z,28.82
2023-06-22T08:05:22.921Z,28.94
2023-06-22T08:07:51.999Z,29.03
2023-06-22T08:10:21.311Z,29.18
2023-06-22T08:12:49.753Z,29.29
2023-06-22T08:15:18.240Z,29.41
2023-06-22T08:17:47.398Z,29.56
2023-06-22T08:20:16.084Z,29.68
2023-06-22T08:22:46.349Z,29.78
2023-06-22T08:25:15.627Z,29.92
2023-06-22T08:27:49.525Z,30.08
2023-06-22T08:30:21.023Z,30.24
2023-06-22T08:32:49.461Z,30.36
2023-06-22T08:35:17.896Z,30.48
2023-06-22T08:37:52.909Z,30.65
2023-06-22T08:40:22.550Z,30.77
2023-06-22T08:42:51.317Z,30.92
2023-06-22T08:45:19.901Z,31.09
2023-06-22T08:47:48.231Z,31.13
2023-06-22T08:50:16.713Z,31.26
2023-06-22T08:52:47.104Z,31.37
2023-06-22T08:55:15.741Z,31.54
2023-06-22T08:57:45.034Z,31.65
2023-06-22T09:00:21.339Z,31.77
2023-06-22T09:02:50.505Z,31.88
2023-06-22T09:05:19.350Z,31.99
2023-06-22T09:07:49.106Z,32.13
2023-06-22T09:10:17.879Z,32.21
2023-06-22T09:12:46.360Z,32.28
2023-06-22T09:15:17.494Z,32.36
2023-06-22T09:17:48.444Z,32.41
2023-06-22T09:20:17.212Z,32.52
2023-06-22T09:22:45.702Z,32.61
2023-06-22T09:25:15.734Z,32.72
2023-06-22T09:27:44.131Z,32.82
2023-06-22T09:30:15.732Z,32.89
2023-06-22T09:32:45.056Z,33.03
2023-06-22T09:35:14.662Z,33.21
2023-06-22T09:37:43.445Z,33.33
2023-06-22T09:40:16.881Z,33.49
2023-06-22T09:42:45.324Z,33.60
2023-06-22T09:45:13.711Z,33.72
2023-06-22T09:47:42.589Z,33.85
2023-06-22T09:50:11.794Z,33.97
2023-06-22T09:55:16.684Z,34.21
2023-06-22T09:57:46.503Z,34.30
2023-06-22T10:00:16.701Z,34.33
2023-06-22T10:02:45.784Z,34.28
2023-06-22T10:05:14.512Z,34.19
2023-06-22T10:07:44.561Z,34.02
2023-06-22T10:10:14.133Z,33.82
2023-06-22T10:12:50.007Z,33.61
2023-06-22T10:15:22.261Z,33.62
2023-06-22T10:17:50.944Z,33.60
2023-06-22T10:20:29.293Z,33.60
2023-06-22T10:22:59.633Z,33.66
2023-06-22T10:25:29.976Z,33.70
2023-06-22T10:27:59.959Z,33.74
2023-06-22T10:30:29.968Z,33.87
2023-06-22T10:32:58.435Z,33.97
2023-06-22T10:35:32.192Z,34.10
2023-06-22T10:38:00.963Z,34.23
2023-06-22T10:40:29.342Z,34.32
2023-06-22T10:42:59.094Z,34.42
2023-06-22T10:45:28.598Z,34.53
2023-06-22T10:47:57.354Z,34.63
2023-06-22T10:50:26.749Z,34.75
2023-06-22T10:52:58.141Z,34.83
2023-06-22T10:55:37.172Z,34.94
2023-06-22T10:58:17.075Z,35.08
2023-06-22T11:00:45.404Z,35.17
2023-06-22T11:03:15.393Z,35.33
2023-06-22T11:05:43.920Z,35.39
2023-06-22T11:08:12.184Z,35.53
2023-06-22T11:10:40.672Z,35.63
2023-06-22T11:13:11.103Z,35.69
2023-06-22T11:15:42.878Z,35.79
2023-06-22T11:18:11.429Z,35.88
2023-06-22T11:20:44.459Z,36.01
2023-06-22T11:23:13.882Z,36.13
2023-06-22T11:25:43.573Z,36.24
2023-06-22T11:28:11.960Z,36.34
2023-06-22T11:30:40.324Z,36.41
2023-06-22T11:33:10.075Z,36.44
2023-06-22T11:35:38.441Z,36.53
2023-06-22T11:38:06.728Z,36.63
2023-06-22T11:40:35.010Z,36.74
2023-06-22T11:43:03.884Z,36.84
2023-06-22T11:45:32.223Z,36.96
2023-06-22T11:48:00.702Z,37.07
2023-06-22T11:50:31.692Z,37.21
2023-06-22T11:53:00.266Z,37.35
2023-06-22T11:55:28.615Z,37.48
2023-06-22T11:58:01.133Z,37.58
2023-06-22T12:00:30.724Z,37.66
2023-06-22T12:03:01.108Z,37.74
2023-06-22T12:05:31.257Z,37.80
2023-06-22T12:07:59.634Z,37.90
2023-06-22T12:10:29.969Z,37.95
2023-06-22T12:13:00.947Z,38.04
2023-06-22T12:15:29.697Z,38.11
2023-06-22T12:17:58.054Z,38.16
2023-06-22T12:20:26.677Z,38.19
2023-06-22T12:22:57.291Z,38.19
2023-06-22T12:25:25.769Z,38.18
2023-06-22T12:27:54.915Z,38.21
2023-06-22T12:30:23.338Z,38.22
2023-06-22T12:32:54.437Z,38.20
2023-06-22T12:35:23.649Z,38.17
2023-06-22T12:37:52.030Z,38.16
2023-06-22T12:40:23.887Z,38.20
2023-06-22T12:42:52.242Z,38.21
2023-06-22T12:45:22.457Z,38.18
2023-06-22T12:47:53.855Z,38.15
2023-06-22T12:50:22.159Z,38.13
2023-06-22T12:52:50.462Z,38.16
2023-06-22T12:55:18.871Z,38.18
2023-06-22T12:57:48.538Z,38.23
2023-06-22T13:00:18.398Z,38.19
2023-06-22T13:02:46.804Z,38.18
2023-06-22T13:05:15.271Z,38.23
2023-06-22T13:07:43.912Z,38.26
2023-06-22T13:10:12.395Z,38.27
2023-06-22T13:12:40.717Z,38.26
2023-06-22T13:15:11.109Z,38.35
2023-06-22T13:17:39.561Z,38.38
2023-06-22T13:20:17.714Z,38.38
2023-06-22T13:22:46.158Z,38.45
2023-06-22T13:25:14.808Z,38.53
2023-06-22T13:27:43.236Z,38.61
2023-06-22T13:30:16.521Z,38.69
2023-06-22T13:32:45.029Z,38.74
2023-06-22T13:35:14.108Z,38.78
2023-06-22T13:37:42.577Z,38.80
2023-06-22T13:40:11.842Z,38.83
2023-06-22T13:42:40.264Z,38.84
2023-06-22T13:45:16.939Z,38.84
2023-06-22T13:47:45.325Z,38.88
2023-06-22T13:50:14.824Z,38.92
2023-06-22T13:52:43.197Z,38.95
2023-06-22T13:55:15.392Z,39.01
2023-06-22T13:57:44.477Z,39.02
2023-06-22T14:00:17.437Z,38.99
2023-06-22T14:02:45.885Z,38.92
2023-06-22T14:05:14.410Z,38.88
2023-06-22T14:07:43.183Z,38.85
2023-06-22T14:10:14.994Z,38.81
2023-06-22T14:12:43.398Z,38.70
2023-06-22T14:15:13.414Z,38.61
2023-06-22T14:17:41.787Z,38.55
2023-06-22T14:20:14.083Z,38.48
2023-06-22T14:22:42.480Z,38.45
2023-06-22T14:25:11.219Z,38.43
2023-06-22T14:27:39.517Z,38.42
2023-06-22T14:30:09.556Z,38.40
2023-06-22T14:32:39.290Z,38.42
2023-06-22T14:35:13.125Z,38.39
2023-06-22T14:37:41.469Z,38.38
2023-06-22T14:40:10.915Z,38.40
2023-06-22T14:42:39.337Z,38.39
2023-06-22T14:45:12.134Z,38.39
2023-06-22T14:47:42.045Z,38.42
2023-06-22T14:50:11.123Z,38.41
2023-06-22T14:52:39.518Z,38.43
2023-06-22T14:55:09.247Z,38.43
2023-06-22T14:57:37.653Z,38.44
2023-06-22T15:00:08.083Z,38.46
2023-06-22T15:02:36.657Z,38.49
2023-06-22T15:05:07.236Z,38.52
2023-06-22T15:07:35.666Z,38.57
2023-06-22T15:10:04.129Z,38.60
2023-06-22T15:12:32.468Z,38.63
2023-06-22T15:15:00.830Z,38.65
2023-06-22T15:17:30.428Z,38.65
2023-06-22T15:20:02.423Z,38.67
2023-06-22T15:22:32.382Z,38.68
2023-06-22T15:25:00.776Z,38.69
2023-06-22T15:27:29.174Z,38.68
2023-06-22T15:30:00.749Z,38.69
2023-06-22T15:32:30.027Z,38.71
2023-06-22T15:34:58.423Z,38.76
2023-06-22T15:37:26.802Z,38.79
2023-06-22T15:39:57.129Z,38.83
2023-06-22T15:42:25.493Z,38.83
2023-06-22T15:44:53.824Z,38.84
2023-06-22T15:47:23.909Z,38.84
2023-06-22T15:49:52.993Z,38.84
2023-06-22T15:52:21.716Z,38.84
2023-06-22T15:54:51.227Z,38.81
2023-06-22T15:57:20.995Z,38.79
2023-06-22T15:59:49.370Z,38.79
2023-06-22T16:02:17.757Z,38.74
2023-06-22T16:04:46.155Z,38.70
2023-06-22T16:07:14.690Z,38.68
2023-06-22T16:09:43.215Z,38.67
2023-06-22T16:12:12.050Z,38.63
2023-06-22T16:14:43.073Z,38.59
2023-06-22T16:17:11.539Z,38.54
2023-06-22T16:19:39.943Z,38.47
2023-06-22T16:22:08.682Z,38.44
2023-06-22T16:24:37.060Z,38.32
2023-06-22T16:27:05.967Z,38.24
2023-06-22T16:29:37.355Z,38.19
2023-06-22T16:32:09.202Z,38.13
2023-06-22T16:34:37.585Z,38.08
2023-06-22T16:37:06.827Z,38.02
2023-06-22T16:39:35.148Z,37.97
2023-06-22T16:42:03.874Z,37.96
2023-06-22T16:44:32.302Z,37.95
2023-06-22T16:47:02.459Z,37.94
2023-06-22T16:49:32.209Z,37.87
2023-06-22T16:52:00.803Z,37.84
2023-06-22T16:54:31.732Z,37.81
2023-06-22T16:57:03.427Z,37.79
2023-06-22T16:59:31.965Z,37.74
2023-06-22T17:02:00.657Z,37.70
2023-06-22T17:04:33.135Z,37.68
2023-06-22T17:07:09.893Z,37.66
2023-06-22T17:09:42.599Z,37.62
2023-06-22T17:12:11.973Z,37.61
2023-06-22T17:14:45.460Z,37.57
2023-06-22T17:17:15.972Z,37.52
2023-06-22T17:19:45.988Z,37.49
2023-06-22T17:22:14.431Z,37.44
2023-06-22T17:24:43.089Z,37.39
2023-06-22T17:27:11.587Z,37.29
2023-06-22T17:29:39.902Z,37.21
2023-06-22T17:32:09.086Z,37.11
2023-06-22T17:34:38.335Z,37.02
2023-06-22T17:37:08.138Z,36.92
2023-06-22T17:39:36.631Z,36.83
2023-06-22T17:42:10.231Z,36.72
2023-06-22T17:44:38.620Z,36.63
2023-06-22T17:47:07.526Z,36.53
2023-06-22T17:49:35.917Z,36.42
2023-06-22T17:52:04.437Z,36.30
2023-06-22T17:54:39.507Z,36.19
2023-06-22T17:57:18.042Z,36.07
2023-06-22T17:59:51.100Z,35.96
2023-06-22T18:02:26.360Z,35.85
2023-06-22T18:04:59.925Z,35.74
2023-06-22T18:07:31.106Z,35.63
2023-06-22T18:10:06.032Z,35.52
2023-06-22T18:12:36.136Z,35.38
2023-06-22T18:15:05.892Z,35.27
2023-06-22T18:17:35.226Z,35.15
2023-06-22T18:20:07.762Z,35.04
2023-06-22T18:22:37.209Z,34.93
2023-06-22T18:25:14.460Z,34.81
2023-06-22T18:27:44.621Z,34.73
2023-06-22T18:30:13.739Z,34.63
2023-06-22T18:32:42.506Z,34.56
2023-06-22T18:35:12.504Z,34.42
2023-06-22T18:37:43.455Z,34.31
2023-06-22T18:40:18.066Z,34.22
2023-06-22T18:42:50.554Z,34.13
2023-06-22T18:45:26.285Z,34.05
2023-06-22T18:48:03.302Z,33.97
2023-06-22T18:50:40.512Z,33.90
2023-06-22T18:53:16.883Z,33.83
2023-06-22T18:55:52.593Z,33.72
2023-06-22T18:58:26.606Z,33.64
2023-06-22T19:00:56.415Z,33.54
2023-06-22T19:03:36.023Z,33.39
2023-06-22T19:06:04.673Z,33.29
2023-06-22T19:09:15.799Z,33.07
2023-06-22T19:11:45.567Z,32.91
2023-06-22T19:14:21.998Z,32.73
2023-06-22T19:16:59.286Z,32.53
2023-06-22T19:19:27.791Z,32.34
2023-06-22T19:22:01.896Z,32.07
2023-06-22T19:24:44.314Z,31.84
2023-06-22T19:27:14.975Z,31.63
2023-06-22T19:29:43.760Z,31.45
2023-06-22T19:32:12.525Z,31.27
2023-06-22T19:34:46.877Z,31.09
2023-06-22T19:37:18.381Z,30.92
2023-06-22T19:39:47.674Z,30.73
2023-06-22T19:42:17.652Z,30.55
2023-06-22T19:44:47.222Z,30.45
2023-06-22T19:47:16.466Z,30.38
2023-06-22T19:49:45.368Z,30.31
2023-06-22T19:52:13.724Z,30.23
2023-06-22T19:54:42.305Z,30.16
2023-06-22T19:57:11.378Z,30.09
2023-06-22T19:59:41.422Z,30.03
2023-06-22T20:02:11.408Z,29.95
2023-06-22T20:04:40.802Z,29.87
2023-06-22T20:07:09.703Z,29.82
2023-06-22T20:09:43.328Z,29.77
2023-06-22T20:12:15.316Z,29.72
2023-06-22T20:14:45.339Z,29.62
2023-06-22T20:17:17.457Z,29.52
2023-06-22T20:19:46.265Z,29.43
2023-06-22T20:22:14.643Z,29.36
2023-06-22T20:24:42.957Z,29.18
2023-06-22T20:27:14.370Z,29.17
2023-06-22T20:29:45.224Z,29.06
2023-06-22T20:32:15.482Z,29.06
2023-06-22T20:34:46.642Z,29.08
2023-06-22T20:37:15.663Z,29.07
2023-06-22T20:39:48.482Z,29.06
2023-06-22T20:42:18.540Z,29.04
2023-06-22T20:44:51.782Z,29.02
2023-06-22T20:47:22.523Z,28.97
2023-06-22T20:49:51.246Z,28.93
2023-06-22T20:52:19.864Z,28.86
2023-06-22T20:54:48.488Z,28.79
2023-06-22T20:57:16.988Z,28.73
2023-06-22T20:59:45.365Z,28.69
2023-06-22T21:02:16.974Z,28.59
2023-06-22T21:04:45.589Z,28.55
2023-06-22T21:07:13.951Z,28.48
2023-06-22T21:09:51.460Z,28.48
2023-06-22T21:12:20.772Z,28.41
2023-06-22T21:14:50.691Z,28.38
2023-06-22T21:17:20.785Z,28.33
2023-06-22T21:19:49.277Z,28.29
2023-06-22T21:22:17.637Z,28.24
2023-06-22T21:24:46.555Z,28.23
2023-06-22T21:27:15.103Z,28.19
2023-06-22T21:29:43.430Z,28.20
2023-06-22T21:32:11.866Z,28.17
2023-06-22T21:34:41.565Z,28.18
2023-06-22T21:37:09.879Z,28.13
2023-06-22T21:39:38.207Z,28.13
2023-06-22T21:42:15.929Z,28.10
2023-06-22T21:44:44.220Z,28.10
2023-06-22T21:47:12.594Z,28.06
2023-06-22T21:49:42.752Z,28.03
2023-06-22T21:52:12.681Z,27.92
2023-06-22T21:54:41.151Z,27.87
2023-06-22T21:57:09.945Z,27.80
2023-06-22T21:59:38.254Z,27.72
2023-06-22T22:02:07.388Z,27.64
2023-06-22T22:04:35.871Z,27.56
2023-06-22T22:07:07.612Z,27.48
2023-06-22T22:09:35.928Z,27.42
2023-06-22T22:12:04.522Z,27.35
2023-06-22T22:14:33.235Z,27.28
2023-06-22T22:17:01.651Z,27.24
2023-06-22T22:19:30.033Z,27.15
2023-06-22T22:21:58.346Z,27.11
2023-06-22T22:24:28.043Z,27.07
2023-06-22T22:26:56.356Z,27.02
2023-06-22T22:29:24.669Z,26.97
2023-06-22T22:31:53.040Z,26.89
2023-06-22T22:34:21.363Z,26.83
2023-06-22T22:36:49.836Z,26.77
2023-06-22T22:39:39.569Z,26.66
2023-06-22T22:42:09.258Z,26.61
2023-06-22T22:44:37.538Z,26.50
2023-06-22T22:47:08.233Z,26.44
2023-06-22T22:49:36.560Z,26.37
2023-06-22T22:52:06.026Z,26.30
2023-06-22T22:54:36.032Z,26.23
2023-06-22T22:57:04.960Z,26.19
2023-06-22T22:59:33.263Z,26.14
2023-06-22T23:02:01.686Z,26.09
2023-06-22T23:04:30.017Z,26.04
2023-06-22T23:07:01.249Z,25.99
2023-06-22T23:09:29.562Z,25.94
2023-06-22T23:11:59.302Z,25.90
2023-06-22T23:14:27.621Z,25.85
2023-06-22T23:16:57.741Z,25.76
2023-06-22T23:19:26.437Z,25.68
2023-06-22T23:21:54.701Z,25.62
2023-06-22T23:24:23.032Z,25.58
2023-06-22T23:26:51.404Z,25.54
2023-06-22T23:29:21.126Z,25.51
2023-06-22T23:31:49.448Z,25.48
2023-06-22T23:34:17.770Z,25.45
2023-06-22T23:36:49.038Z,25.41
2023-06-22T23:39:18.839Z,25.40
2023-06-22T23:41:55.125Z,25.35
2023-06-22T23:44:26.023Z,25.34
2023-06-22T23:46:54.389Z,25.31
2023-06-22T23:49:22.645Z,25.27
2023-06-22T23:51:50.990Z,25.24
2023-06-22T23:54:19.300Z,25.22
2023-06-22T23:56:47.646Z,25.20
2023-06-22T23:59:15.985Z,25.17
